sensor_id;sensor_type;location;lat;lon;timestamp;pressure;altitude;pressure_sealevel;temperature;humidity
79455;BME280;68900;52.134;5.420;2023-10-08T00:00:05;102386.78;;;17.93;87.44
79455;BME280;68900;52.134;5.420;2023-10-08T00:02:52;102392.25;;;17.93;87.90
79455;BME280;68900;52.134;5.420;2023-10-08T00:05:19;102398.88;;;17.90;87.98
79455;BME280;68900;52.134;5.420;2023-10-08T00:07:45;102406.38;;;17.88;88.26
79455;BME280;68900;52.134;5.420;2023-10-08T00:10:14;102419.16;;;17.88;88.47
79455;BME280;68900;52.134;5.420;2023-10-08T00:12:41;102425.66;;;17.87;88.83
79455;BME280;68900;52.134;5.420;2023-10-08T00:15:08;102426.34;;;17.89;88.67
79455;BME280;68900;52.134;5.420;2023-10-08T00:17:36;102439.16;;;17.88;88.67
79455;BME280;68900;52.134;5.420;2023-10-08T00:20:03;102439.16;;;17.88;89.10
79455;BME280;68900;52.134;5.420;2023-10-08T00:22:30;102420.03;;;17.88;88.41
79455;BME280;68900;52.134;5.420;2023-10-08T00:25:02;102422.75;;;17.88;89.05
79455;BME280;68900;52.134;5.420;2023-10-08T00:27:37;102421.03;;;17.87;89.58
79455;BME280;68900;52.134;5.420;2023-10-08T00:30:06;102421.03;;;17.87;89.44
79455;BME280;68900;52.134;5.420;2023-10-08T00:32:44;102413.00;;;17.86;88.98
79455;BME280;68900;52.134;5.420;2023-10-08T00:35:11;102417.59;;;17.85;89.43
79455;BME280;68900;52.134;5.420;2023-10-08T00:37:41;102423.91;;;17.86;89.32
79455;BME280;68900;52.134;5.420;2023-10-08T00:40:08;102397.47;;;17.86;89.30
79455;BME280;68900;52.134;5.420;2023-10-08T00:42:38;102403.78;;;17.87;89.70
79455;BME280;68900;52.134;5.420;2023-10-08T00:45:11;102410.13;;;17.87;88.99
79455;BME280;68900;52.134;5.420;2023-10-08T00:47:41;102406.53;;;17.87;89.35
79455;BME280;68900;52.134;5.420;2023-10-08T00:50:10;102390.28;;;17.85;89.03
79455;BME280;68900;52.134;5.420;2023-10-08T00:52:48;102398.47;;;17.85;89.53
79455;BME280;68900;52.134;5.420;2023-10-08T00:55:40;102385.00;;;17.84;89.20
79455;BME280;68900;52.134;5.420;2023-10-08T00:58:15;102385.69;;;17.86;90.11
79455;BME280;68900;52.134;5.420;2023-10-08T01:00:51;102387.56;;;17.85;89.79
79455;BME280;68900;52.134;5.420;2023-10-08T01:03:23;102386.88;;;17.83;89.65
79455;BME280;68900;52.134;5.420;2023-10-08T01:05:54;102368.94;;;17.81;89.22
79455;BME280;68900;52.134;5.420;2023-10-08T01:08:25;102363.66;;;17.79;89.08
79455;BME280;68900;52.134;5.420;2023-10-08T01:11:20;102385.78;;;17.76;89.83
79455;BME280;68900;52.134;5.420;2023-10-08T01:13:52;102375.91;;;17.75;89.65
79455;BME280;68900;52.134;5.420;2023-10-08T01:16:21;102373.34;;;17.74;89.65
79455;BME280;68900;52.134;5.420;2023-10-08T01:18:47;102375.34;;;17.72;90.36
79455;BME280;68900;52.134;5.420;2023-10-08T01:21:17;102380.13;;;17.70;89.91
79455;BME280;68900;52.134;5.420;2023-10-08T01:23:58;102368.50;;;17.67;90.46
79455;BME280;68900;52.134;5.420;2023-10-08T01:26:27;102380.44;;;17.66;89.66
79455;BME280;68900;52.134;5.420;2023-10-08T01:28:57;102382.34;;;17.66;90.18
79455;BME280;68900;52.134;5.420;2023-10-08T01:31:32;102385.22;;;17.64;89.91
79455;BME280;68900;52.134;5.420;2023-10-08T01:34:01;102385.22;;;17.64;89.51
79455;BME280;68900;52.134;5.420;2023-10-08T01:36:30;102393.41;;;17.64;89.57
79455;BME280;68900;52.134;5.420;2023-10-08T01:39:00;102408.78;;;17.65;89.63
79455;BME280;68900;52.134;5.420;2023-10-08T01:41:28;102410.25;;;17.60;90.28
79455;BME280;68900;52.134;5.420;2023-10-08T01:43:57;102401.81;;;17.53;91.26
79455;BME280;68900;52.134;5.420;2023-10-08T01:46:26;102408.13;;;17.54;91.03
79455;BME280;68900;52.134;5.420;2023-10-08T01:48:54;102411.72;;;17.54;90.81
79455;BME280;68900;52.134;5.420;2023-10-08T01:51:30;102415.63;;;17.52;91.41
79455;BME280;68900;52.134;5.420;2023-10-08T01:54:03;102412.19;;;17.50;91.11
79455;BME280;68900;52.134;5.420;2023-10-08T01:56:38;102431.16;;;17.51;90.98
79455;BME280;68900;52.134;5.420;2023-10-08T01:59:11;102434.03;;;17.50;90.83
79455;BME280;68900;52.134;5.420;2023-10-08T02:01:43;102448.53;;;17.50;90.54
79455;BME280;68900;52.134;5.420;2023-10-08T02:04:12;102448.53;;;17.50;90.84
79455;BME280;68900;52.134;5.420;2023-10-08T02:06:39;102467.63;;;17.50;91.34
79455;BME280;68900;52.134;5.420;2023-10-08T02:09:09;102456.19;;;17.47;91.75
79455;BME280;68900;52.134;5.420;2023-10-08T02:11:43;102451.59;;;17.47;91.71
79455;BME280;68900;52.134;5.420;2023-10-08T02:14:10;102454.13;;;17.49;92.02
79455;BME280;68900;52.134;5.420;2023-10-08T02:16:38;102450.72;;;17.47;92.86
79455;BME280;68900;52.134;5.420;2023-10-08T02:19:05;102461.63;;;17.47;92.06
79455;BME280;68900;52.134;5.420;2023-10-08T02:21:36;102459.59;;;17.49;91.74
79455;BME280;68900;52.134;5.420;2023-10-08T02:24:06;102458.72;;;17.48;92.55
79455;BME280;68900;52.134;5.420;2023-10-08T02:26:38;102445.25;;;17.47;91.77
79455;BME280;68900;52.134;5.420;2023-10-08T02:29:05;102411.66;;;17.46;92.28
79455;BME280;68900;52.134;5.420;2023-10-08T02:31:39;102465.91;;;17.49;92.54
79455;BME280;68900;52.134;5.420;2023-10-08T02:34:10;102454.47;;;17.46;92.88
79455;BME280;68900;52.134;5.420;2023-10-08T02:36:41;102481.88;;;17.44;92.66
79455;BME280;68900;52.134;5.420;2023-10-08T02:39:10;102462.09;;;17.42;92.74
79455;BME280;68900;52.134;5.420;2023-10-08T02:41:52;102451.88;;;17.44;92.93
79455;BME280;68900;52.134;5.420;2023-10-08T02:44:21;102436.50;;;17.43;92.48
79455;BME280;68900;52.134;5.420;2023-10-08T02:46:49;102429.19;;;17.44;92.19
79455;BME280;68900;52.134;5.420;2023-10-08T02:49:17;102418.84;;;17.47;92.08
79455;BME280;68900;52.134;5.420;2023-10-08T02:51:47;102432.63;;;17.46;92.17
79455;BME280;68900;52.134;5.420;2023-10-08T02:54:18;102486.34;;;17.45;91.74
79455;BME280;68900;52.134;5.420;2023-10-08T02:56:49;102454.59;;;17.44;92.61
79455;BME280;68900;52.134;5.420;2023-10-08T02:59:28;102470.59;;;17.39;92.60
79455;BME280;68900;52.134;5.420;2023-10-08T03:01:55;102466.00;;;17.40;92.76
79455;BME280;68900;52.134;5.420;2023-10-08T03:04:22;102447.91;;;17.39;92.11
79455;BME280;68900;52.134;5.420;2023-10-08T03:06:49;102434.44;;;17.37;92.92
79455;BME280;68900;52.134;5.420;2023-10-08T03:09:21;102477.09;;;17.38;93.12
79455;BME280;68900;52.134;5.420;2023-10-08T03:11:52;102475.19;;;17.39;92.39
79455;BME280;68900;52.134;5.420;2023-10-08T03:14:21;102461.38;;;17.40;92.40
79455;BME280;68900;52.134;5.420;2023-10-08T03:16:52;102471.31;;;17.41;92.45
79455;BME280;68900;52.134;5.420;2023-10-08T03:19:22;102450.47;;;17.40;92.57
79455;BME280;68900;52.134;5.420;2023-10-08T03:21:50;102457.97;;;17.38;92.15
79455;BME280;68900;52.134;5.420;2023-10-08T03:24:25;102465.13;;;17.39;92.39
79455;BME280;68900;52.134;5.420;2023-10-08T03:27:01;102450.63;;;17.39;92.17
79455;BME280;68900;52.134;5.420;2023-10-08T03:29:54;102441.59;;;17.38;91.98
79455;BME280;68900;52.134;5.420;2023-10-08T03:32:21;102441.91;;;17.35;91.96
79455;BME280;68900;52.134;5.420;2023-10-08T03:34:53;102455.72;;;17.34;92.20
79455;BME280;68900;52.134;5.420;2023-10-08T03:37:22;102478.38;;;17.34;92.29
79455;BME280;68900;52.134;5.420;2023-10-08T03:39:56;102500.19;;;17.34;92.35
79455;BME280;68900;52.134;5.420;2023-10-08T03:42:40;102512.44;;;17.30;92.95
79455;BME280;68900;52.134;5.420;2023-10-08T03:45:08;102502.00;;;17.26;92.97
79455;BME280;68900;52.134;5.420;2023-10-08T03:47:38;102507.31;;;17.27;92.77
79455;BME280;68900;52.134;5.420;2023-10-08T03:50:06;102493.66;;;17.27;92.84
79455;BME280;68900;52.134;5.420;2023-10-08T03:52:36;102502.72;;;17.28;92.54
79455;BME280;68900;52.134;5.420;2023-10-08T03:55:05;102514.50;;;17.28;92.68
79455;BME280;68900;52.134;5.420;2023-10-08T03:57:53;102511.03;;;17.26;92.90
79455;BME280;68900;52.134;5.420;2023-10-08T04:00:30;102525.69;;;17.25;93.30
79455;BME280;68900;52.134;5.420;2023-10-08T04:02:58;102526.16;;;17.20;92.87
79455;BME280;68900;52.134;5.420;2023-10-08T04:05:37;102527.69;;;17.05;92.00
79455;BME280;68900;52.134;5.420;2023-10-08T04:08:18;102553.22;;;16.77;92.25
79455;BME280;68900;52.134;5.420;2023-10-08T04:10:51;102561.88;;;16.63;92.38
79455;BME280;68900;52.134;5.420;2023-10-08T04:13:34;102558.44;;;16.51;92.59
79455;BME280;68900;52.134;5.420;2023-10-08T04:16:05;102565.78;;;16.41;92.40
79455;BME280;68900;52.134;5.420;2023-10-08T04:18:38;102573.00;;;16.23;92.46
79455;BME280;68900;52.134;5.420;2023-10-08T04:21:07;102581.59;;;16.18;92.26
79455;BME280;68900;52.134;5.420;2023-10-08T04:23:40;102574.16;;;16.01;91.76
79455;BME280;68900;52.134;5.420;2023-10-08T04:26:06;102562.13;;;15.84;91.97
79455;BME280;68900;52.134;5.420;2023-10-08T04:28:33;102563.25;;;15.82;91.94
79455;BME280;68900;52.134;5.420;2023-10-08T04:31:01;102571.59;;;15.90;91.81
79455;BME280;68900;52.134;5.420;2023-10-08T04:33:44;102554.66;;;15.96;92.02
79455;BME280;68900;52.134;5.420;2023-10-08T04:36:11;102553.09;;;15.74;91.56
79455;BME280;68900;52.134;5.420;2023-10-08T04:38:44;102546.09;;;15.62;92.47
79455;BME280;68900;52.134;5.420;2023-10-08T04:41:15;102546.34;;;15.69;91.89
79455;BME280;68900;52.134;5.420;2023-10-08T04:43:46;102542.06;;;15.76;91.93
79455;BME280;68900;52.134;5.420;2023-10-08T04:46:15;102527.44;;;15.77;91.55
79455;BME280;68900;52.134;5.420;2023-10-08T04:49:00;102525.75;;;15.66;91.72
79455;BME280;68900;52.134;5.420;2023-10-08T04:51:31;102532.19;;;15.65;92.21
79455;BME280;68900;52.134;5.420;2023-10-08T04:54:10;102555.38;;;15.69;91.54
79455;BME280;68900;52.134;5.420;2023-10-08T04:56:43;102578.16;;;15.78;91.75
79455;BME280;68900;52.134;5.420;2023-10-08T04:59:10;102579.31;;;15.75;91.70
79455;BME280;68900;52.134;5.420;2023-10-08T05:01:40;102575.16;;;15.71;91.55
79455;BME280;68900;52.134;5.420;2023-10-08T05:04:28;102572.44;;;15.71;91.74
79455;BME280;68900;52.134;5.420;2023-10-08T05:07:13;102586.59;;;15.65;91.66
79455;BME280;68900;52.134;5.420;2023-10-08T05:09:58;102583.47;;;15.70;91.79
79455;BME280;68900;52.134;5.420;2023-10-08T05:12:33;102577.59;;;15.74;91.27
79455;BME280;68900;52.134;5.420;2023-10-08T05:15:32;102569.28;;;15.66;92.17
79455;BME280;68900;52.134;5.420;2023-10-08T05:18:16;102571.41;;;15.72;91.89
79455;BME280;68900;52.134;5.420;2023-10-08T05:20:45;102584.31;;;15.70;92.14
79455;BME280;68900;52.134;5.420;2023-10-08T05:23:17;102591.06;;;15.66;92.11
79455;BME280;68900;52.134;5.420;2023-10-08T05:26:07;102601.63;;;15.60;92.36
79455;BME280;68900;52.134;5.420;2023-10-08T05:28:38;102615.97;;;15.62;92.65
79455;BME280;68900;52.134;5.420;2023-10-08T05:31:23;102624.97;;;15.53;92.41
79455;BME280;68900;52.134;5.420;2023-10-08T05:34:11;102616.31;;;15.38;93.07
79455;BME280;68900;52.134;5.420;2023-10-08T05:36:41;102611.56;;;15.30;92.38
79455;BME280;68900;52.134;5.420;2023-10-08T05:39:39;102623.28;;;15.31;91.76
79455;BME280;68900;52.134;5.420;2023-10-08T05:42:06;102631.81;;;15.17;91.27
79455;BME280;68900;52.134;5.420;2023-10-08T05:44:40;102629.66;;;15.11;90.71
79455;BME280;68900;52.134;5.420;2023-10-08T05:47:14;102634.59;;;14.96;89.87
79455;BME280;68900;52.134;5.420;2023-10-08T05:49:56;102629.66;;;14.80;89.89
79455;BME280;68900;52.134;5.420;2023-10-08T05:52:42;102678.38;;;14.72;90.41
79455;BME280;68900;52.134;5.420;2023-10-08T05:55:33;102681.88;;;14.63;90.79
79455;BME280;68900;52.134;5.420;2023-10-08T05:58:11;102654.78;;;14.52;90.21
79455;BME280;68900;52.134;5.420;2023-10-08T06:00:51;102647.19;;;14.46;90.13
79455;BME280;68900;52.134;5.420;2023-10-08T06:03:50;102631.75;;;14.46;89.66
79455;BME280;68900;52.134;5.420;2023-10-08T06:06:47;102621.19;;;14.53;89.71
79455;BME280;68900;52.134;5.420;2023-10-08T06:09:24;102629.44;;;14.42;89.05
79455;BME280;68900;52.134;5.420;2023-10-08T06:12:04;102649.31;;;14.31;89.38
79455;BME280;68900;52.134;5.420;2023-10-08T06:14:39;102647.84;;;14.27;89.00
79455;BME280;68900;52.134;5.420;2023-10-08T06:17:35;102674.25;;;14.36;89.79
79455;BME280;68900;52.134;5.420;2023-10-08T06:20:23;102681.63;;;14.34;88.99
79455;BME280;68900;52.134;5.420;2023-10-08T06:22:52;102679.94;;;14.33;89.34
79455;BME280;68900;52.134;5.420;2023-10-08T06:25:21;102688.19;;;14.32;89.11
79455;BME280;68900;52.134;5.420;2023-10-08T06:27:51;102683.28;;;14.26;89.25
79455;BME280;68900;52.134;5.420;2023-10-08T06:30:22;102689.56;;;14.26;88.92
79455;BME280;68900;52.134;5.420;2023-10-08T06:32:51;102694.63;;;14.20;88.49
79455;BME280;68900;52.134;5.420;2023-10-08T06:35:32;102687.75;;;14.15;89.17
79455;BME280;68900;52.134;5.420;2023-10-08T06:38:02;102685.78;;;14.18;88.98
79455;BME280;68900;52.134;5.420;2023-10-08T06:40:34;102690.47;;;14.15;88.42
79455;BME280;68900;52.134;5.420;2023-10-08T06:43:04;102695.91;;;14.15;88.64
79455;BME280;68900;52.134;5.420;2023-10-08T06:45:51;102706.63;;;14.17;88.64
79455;BME280;68900;52.134;5.420;2023-10-08T06:48:24;102713.59;;;14.10;89.13
79455;BME280;68900;52.134;5.420;2023-10-08T06:50:52;102703.16;;;14.15;88.78
79455;BME280;68900;52.134;5.420;2023-10-08T06:53:34;102692.94;;;14.19;88.68
79455;BME280;68900;52.134;5.420;2023-10-08T06:56:04;102698.59;;;14.15;88.30
79455;BME280;68900;52.134;5.420;2023-10-08T06:58:31;102706.16;;;14.12;88.41
79455;BME280;68900;52.134;5.420;2023-10-08T07:01:01;102711.94;;;14.19;87.91
79455;BME280;68900;52.134;5.420;2023-10-08T07:03:36;102710.94;;;14.20;87.85
79455;BME280;68900;52.134;5.420;2023-10-08T07:06:05;102711.47;;;14.13;88.15
79455;BME280;68900;52.134;5.420;2023-10-08T07:08:45;102723.03;;;14.15;87.91
79455;BME280;68900;52.134;5.420;2023-10-08T07:11:22;102719.69;;;14.23;88.06
79455;BME280;68900;52.134;5.420;2023-10-08T07:13:50;102718.84;;;14.23;87.53
79455;BME280;68900;52.134;5.420;2023-10-08T07:16:19;102722.41;;;14.23;88.54
79455;BME280;68900;52.134;5.420;2023-10-08T07:18:47;102723.00;;;14.27;88.21
79455;BME280;68900;52.134;5.420;2023-10-08T07:21:21;102730.19;;;14.28;88.01
79455;BME280;68900;52.134;5.420;2023-10-08T07:23:56;102731.66;;;14.21;87.95
79455;BME280;68900;52.134;5.420;2023-10-08T07:26:27;102734.47;;;14.30;88.08
79455;BME280;68900;52.134;5.420;2023-10-08T07:29:06;102722.88;;;14.39;88.05
79455;BME280;68900;52.134;5.420;2023-10-08T07:31:37;102734.94;;;14.35;87.55
79455;BME280;68900;52.134;5.420;2023-10-08T07:34:07;102734.00;;;14.36;87.59
79455;BME280;68900;52.134;5.420;2023-10-08T07:36:55;102734.94;;;14.46;87.79
79455;BME280;68900;52.134;5.420;2023-10-08T07:39:22;102727.19;;;14.42;87.82
79455;BME280;68900;52.134;5.420;2023-10-08T07:41:59;102728.50;;;14.47;87.47
79455;BME280;68900;52.134;5.420;2023-10-08T07:44:29;102723.81;;;14.49;87.77
79455;BME280;68900;52.134;5.420;2023-10-08T07:46:59;102729.38;;;14.48;87.63
79455;BME280;68900;52.134;5.420;2023-10-08T07:49:31;102744.41;;;14.52;88.11
79455;BME280;68900;52.134;5.420;2023-10-08T07:51:58;102742.44;;;14.54;87.19
79455;BME280;68900;52.134;5.420;2023-10-08T07:54:28;102737.34;;;14.61;87.82
79455;BME280;68900;52.134;5.420;2023-10-08T07:56:55;102754.53;;;14.61;87.50
79455;BME280;68900;52.134;5.420;2023-10-08T07:59:46;102761.81;;;14.61;87.38
79455;BME280;68900;52.134;5.420;2023-10-08T08:02:22;102763.38;;;14.63;87.56
79455;BME280;68900;52.134;5.420;2023-10-08T08:04:51;102759.88;;;14.72;86.64
79455;BME280;68900;52.134;5.420;2023-10-08T08:07:20;102763.59;;;14.71;86.09
79455;BME280;68900;52.134;5.420;2023-10-08T08:09:48;102766.06;;;14.74;86.31
79455;BME280;68900;52.134;5.420;2023-10-08T08:12:21;102775.19;;;14.73;85.78
79455;BME280;68900;52.134;5.420;2023-10-08T08:14:49;102769.28;;;14.68;85.40
79455;BME280;68900;52.134;5.420;2023-10-08T08:17:17;102774.59;;;14.70;85.96
79455;BME280;68900;52.134;5.420;2023-10-08T08:19:46;102782.50;;;14.73;85.90
79455;BME280;68900;52.134;5.420;2023-10-08T08:22:22;102792.41;;;14.63;85.58
79455;BME280;68900;52.134;5.420;2023-10-08T08:24:53;102793.00;;;14.66;84.92
79455;BME280;68900;52.134;5.420;2023-10-08T08:27:31;102789.19;;;14.69;85.47
79455;BME280;68900;52.134;5.420;2023-10-08T08:29:59;102786.06;;;14.73;85.05
79455;BME280;68900;52.134;5.420;2023-10-08T08:32:44;102795.16;;;14.83;84.95
79455;BME280;68900;52.134;5.420;2023-10-08T08:35:12;102801.59;;;14.82;84.37
79455;BME280;68900;52.134;5.420;2023-10-08T08:37:43;102825.66;;;14.87;83.77
79455;BME280;68900;52.134;5.420;2023-10-08T08:40:12;102821.09;;;14.87;83.69
79455;BME280;68900;52.134;5.420;2023-10-08T08:42:45;102822.66;;;14.90;83.85
79455;BME280;68900;52.134;5.420;2023-10-08T08:45:21;102831.09;;;14.87;83.75
79455;BME280;68900;52.134;5.420;2023-10-08T08:47:52;102836.66;;;14.85;82.26
79455;BME280;68900;52.134;5.420;2023-10-08T08:50:19;102823.59;;;14.79;82.29
79455;BME280;68900;52.134;5.420;2023-10-08T08:52:46;102818.50;;;14.86;83.37
79455;BME280;68900;52.134;5.420;2023-10-08T08:55:13;102810.22;;;14.87;82.82
79455;BME280;68900;52.134;5.420;2023-10-08T08:57:47;102808.22;;;14.89;81.89
79455;BME280;68900;52.134;5.420;2023-10-08T09:00:16;102804.00;;;14.96;82.19
79455;BME280;68900;52.134;5.420;2023-10-08T09:02:47;102801.47;;;15.04;82.86
79455;BME280;68900;52.134;5.420;2023-10-08T09:05:17;102798.47;;;15.08;82.50
79455;BME280;68900;52.134;5.420;2023-10-08T09:08:01;102803.41;;;15.14;82.18
79455;BME280;68900;52.134;5.420;2023-10-08T09:10:37;102797.25;;;15.12;81.93
79455;BME280;68900;52.134;5.420;2023-10-08T09:13:05;102793.78;;;15.10;81.48
79455;BME280;68900;52.134;5.420;2023-10-08T09:15:33;102792.78;;;15.11;82.18
79455;BME280;68900;52.134;5.420;2023-10-08T09:18:00;102792.41;;;15.15;81.65
79455;BME280;68900;52.134;5.420;2023-10-08T09:20:28;102784.31;;;15.25;81.54
79455;BME280;68900;52.134;5.420;2023-10-08T09:23:15;102782.75;;;15.32;82.01
79455;BME280;68900;52.134;5.420;2023-10-08T09:25:45;102784.94;;;15.38;81.46
79455;BME280;68900;52.134;5.420;2023-10-08T09:28:14;102790.84;;;15.43;80.70
79455;BME280;68900;52.134;5.420;2023-10-08T09:30:41;102800.88;;;15.42;80.77
79455;BME280;68900;52.134;5.420;2023-10-08T09:33:10;102796.00;;;15.46;80.54
79455;BME280;68900;52.134;5.420;2023-10-08T09:35:37;102793.16;;;15.47;80.97
79455;BME280;68900;52.134;5.420;2023-10-08T09:38:05;102800.19;;;15.50;80.81
79455;BME280;68900;52.134;5.420;2023-10-08T09:40:31;102800.41;;;15.58;80.95
79455;BME280;68900;52.134;5.420;2023-10-08T09:42:59;102824.22;;;15.66;79.83
79455;BME280;68900;52.134;5.420;2023-10-08T09:45:25;102809.56;;;15.57;80.59
79455;BME280;68900;52.134;5.420;2023-10-08T09:47:55;102809.81;;;15.54;80.77
79455;BME280;68900;52.134;5.420;2023-10-08T09:50:30;102810.72;;;15.64;81.27
79455;BME280;68900;52.134;5.420;2023-10-08T09:53:09;102814.59;;;15.62;80.40
79455;BME280;68900;52.134;5.420;2023-10-08T09:55:49;102806.44;;;15.62;80.86
79455;BME280;68900;52.134;5.420;2023-10-08T09:58:21;102800.19;;;15.71;80.60
79455;BME280;68900;52.134;5.420;2023-10-08T10:00:52;102813.09;;;15.78;80.57
79455;BME280;68900;52.134;5.420;2023-10-08T10:03:25;102809.97;;;15.83;80.09
79455;BME280;68900;52.134;5.420;2023-10-08T10:05:52;102803.66;;;15.82;79.94
79455;BME280;68900;52.134;5.420;2023-10-08T10:08:25;102796.59;;;15.70;80.57
79455;BME280;68900;52.134;5.420;2023-10-08T10:11:00;102789.28;;;15.71;80.57
79455;BME280;68900;52.134;5.420;2023-10-08T10:13:28;102790.63;;;15.76;80.77
79455;BME280;68900;52.134;5.420;2023-10-08T10:15:58;102793.75;;;15.81;80.28
79455;BME280;68900;52.134;5.420;2023-10-08T10:20:56;102806.69;;;15.89;80.39
79455;BME280;68900;52.134;5.420;2023-10-08T10:23:41;102805.41;;;15.93;80.54
79455;BME280;68900;52.134;5.420;2023-10-08T10:31:41;102805.75;;;16.00;80.04
79455;BME280;68900;52.134;5.420;2023-10-08T10:34:15;102803.56;;;15.94;80.29
79455;BME280;68900;52.134;5.420;2023-10-08T10:36:47;102796.50;;;15.91;80.62
79455;BME280;68900;52.134;5.420;2023-10-08T10:39:20;102801.97;;;15.91;81.08
79455;BME280;68900;52.134;5.420;2023-10-08T10:41:55;102810.03;;;16.02;81.03
79455;BME280;68900;52.134;5.420;2023-10-08T10:44:29;102812.34;;;16.07;80.61
79455;BME280;68900;52.134;5.420;2023-10-08T10:46:59;102814.94;;;16.08;80.14
79455;BME280;68900;52.134;5.420;2023-10-08T10:49:47;102816.63;;;16.09;80.34
79455;BME280;68900;52.134;5.420;2023-10-08T10:52:22;102814.53;;;16.13;80.66
79455;BME280;68900;52.134;5.420;2023-10-08T10:55:01;102808.22;;;16.12;80.15
79455;BME280;68900;52.134;5.420;2023-10-08T10:57:53;102800.75;;;16.14;80.62
79455;BME280;68900;52.134;5.420;2023-10-08T11:00:26;102790.03;;;16.22;79.88
79455;BME280;68900;52.134;5.420;2023-10-08T11:03:00;102792.19;;;16.28;80.53
79455;BME280;68900;52.134;5.420;2023-10-08T11:05:33;102793.03;;;16.29;80.05
79455;BME280;68900;52.134;5.420;2023-10-08T11:08:06;102781.44;;;16.27;80.55
79455;BME280;68900;52.134;5.420;2023-10-08T11:10:39;102780.00;;;16.32;80.19
79455;BME280;68900;52.134;5.420;2023-10-08T11:13:06;102791.50;;;16.36;80.60
79455;BME280;68900;52.134;5.420;2023-10-08T11:15:46;102792.06;;;16.40;80.42
79455;BME280;68900;52.134;5.420;2023-10-08T11:18:21;102799.06;;;16.32;79.69
79455;BME280;68900;52.134;5.420;2023-10-08T11:20:49;102797.50;;;16.30;79.47
79455;BME280;68900;52.134;5.420;2023-10-08T11:23:34;102788.59;;;16.38;79.82
79455;BME280;68900;52.134;5.420;2023-10-08T11:26:02;102785.31;;;16.44;79.97
79455;BME280;68900;52.134;5.420;2023-10-08T11:28:39;102788.06;;;16.44;79.41
79455;BME280;68900;52.134;5.420;2023-10-08T11:31:13;102787.91;;;16.35;79.50
79455;BME280;68900;52.134;5.420;2023-10-08T11:33:42;102787.47;;;16.40;79.46
79455;BME280;68900;52.134;5.420;2023-10-08T11:36:09;102785.75;;;16.39;79.61
79455;BME280;68900;52.134;5.420;2023-10-08T11:38:45;102778.00;;;16.34;79.97
79455;BME280;68900;52.134;5.420;2023-10-08T11:41:17;102776.84;;;16.37;79.93
79455;BME280;68900;52.134;5.420;2023-10-08T11:43:51;102785.63;;;16.41;79.80
79455;BME280;68900;52.134;5.420;2023-10-08T11:46:27;102782.03;;;16.40;79.84
79455;BME280;68900;52.134;5.420;2023-10-08T11:48:54;102775.41;;;16.43;79.34
79455;BME280;68900;52.134;5.420;2023-10-08T11:51:33;102776.72;;;16.39;79.70
79455;BME280;68900;52.134;5.420;2023-10-08T11:54:01;102772.56;;;16.44;79.27
79455;BME280;68900;52.134;5.420;2023-10-08T11:56:30;102764.09;;;16.47;79.39
79455;BME280;68900;52.134;5.420;2023-10-08T11:58:59;102767.00;;;16.55;79.60
79455;BME280;68900;52.134;5.420;2023-10-08T12:01:27;102760.94;;;16.52;79.15
79455;BME280;68900;52.134;5.420;2023-10-08T12:03:57;102760.06;;;16.51;79.18
79455;BME280;68900;52.134;5.420;2023-10-08T12:06:26;102753.06;;;16.49;78.70
79455;BME280;68900;52.134;5.420;2023-10-08T12:08:56;102746.75;;;16.48;78.84
79455;BME280;68900;52.134;5.420;2023-10-08T12:11:25;102744.16;;;16.47;79.01
79455;BME280;68900;52.134;5.420;2023-10-08T12:13:58;102720.06;;;16.52;79.01
79455;BME280;68900;52.134;5.420;2023-10-08T12:16:27;102719.84;;;16.64;79.37
79455;BME280;68900;52.134;5.420;2023-10-08T12:19:04;102718.81;;;16.65;78.85
79455;BME280;68900;52.134;5.420;2023-10-08T12:21:42;102716.25;;;16.64;78.28
79455;BME280;68900;52.134;5.420;2023-10-08T12:24:12;102717.22;;;16.53;78.26
79455;BME280;68900;52.134;5.420;2023-10-08T12:26:39;102710.91;;;16.53;78.74
79455;BME280;68900;52.134;5.420;2023-10-08T12:29:13;102712.50;;;16.55;78.93
79455;BME280;68900;52.134;5.420;2023-10-08T12:31:46;102699.44;;;16.49;78.99
79455;BME280;68900;52.134;5.420;2023-10-08T12:34:14;102701.84;;;16.43;79.20
79455;BME280;68900;52.134;5.420;2023-10-08T12:36:41;102695.84;;;16.49;79.71
79455;BME280;68900;52.134;5.420;2023-10-08T12:39:08;102696.56;;;16.60;79.34
79455;BME280;68900;52.134;5.420;2023-10-08T12:41:42;102697.59;;;16.59;79.17
79455;BME280;68900;52.134;5.420;2023-10-08T12:44:11;102686.53;;;16.61;79.35
79455;BME280;68900;52.134;5.420;2023-10-08T12:46:38;102690.84;;;16.63;78.94
79455;BME280;68900;52.134;5.420;2023-10-08T12:49:08;102692.56;;;16.64;79.03
79455;BME280;68900;52.134;5.420;2023-10-08T12:51:34;102684.53;;;16.63;78.53
79455;BME280;68900;52.134;5.420;2023-10-08T12:54:04;102676.66;;;16.60;78.78
79455;BME280;68900;52.134;5.420;2023-10-08T12:56:38;102674.16;;;16.57;78.71
79455;BME280;68900;52.134;5.420;2023-10-08T12:59:11;102672.44;;;16.56;79.17
79455;BME280;68900;52.134;5.420;2023-10-08T13:01:52;102671.75;;;16.54;78.77
79455;BME280;68900;52.134;5.420;2023-10-08T13:04:22;102673.22;;;16.58;78.76
79455;BME280;68900;52.134;5.420;2023-10-08T13:06:56;102671.78;;;16.63;78.67
79455;BME280;68900;52.134;5.420;2023-10-08T13:09:24;102672.47;;;16.65;78.26
79455;BME280;68900;52.134;5.420;2023-10-08T13:11:51;102670.19;;;16.61;78.38
79455;BME280;68900;52.134;5.420;2023-10-08T13:14:18;102668.44;;;16.69;78.69
79455;BME280;68900;52.134;5.420;2023-10-08T13:16:45;102673.63;;;16.72;77.78
79455;BME280;68900;52.134;5.420;2023-10-08T13:19:12;102672.75;;;16.72;77.85
79455;BME280;68900;52.134;5.420;2023-10-08T13:21:38;102673.88;;;16.79;78.14
79455;BME280;68900;52.134;5.420;2023-10-08T13:24:05;102674.28;;;16.84;77.94
79455;BME280;68900;52.134;5.420;2023-10-08T13:26:36;102670.69;;;16.93;78.01